Flight Track Log - Related Links

Times and Time Zones

All times are in EDT time to prevent confusion due to time zone crossing. See the UAL5914 flight status page for this flight to view local times or setup timezone preferences in your user account.

Time Position Orientation Groundspeed Altitude Reporting Facility
EDT Latitude Longitude Course Direction KTS MPH feet Rate Location/Type
Thu 10:43:00 PM 41.9833 -87.8500 77° East 182 209 2,500  Level Chicago TRACON
Thu 10:43:36 PM 41.9764 -87.7969 100° East 215 247 3,300 2,289 Climbing Chicago Center
Thu 10:44:37 PM 41.9861 -87.6967 83° East 263 303 6,200 2,803 Climbing Chicago Center
Thu 10:45:00 PM 42.0370 -87.5100 83° East  Level FlightAware Approximate
Thu 10:45:38 PM 42.0042 -87.6019 76° East 265 305 9,000  Level Chicago Center
Thu 10:46:00 PM 42.0493 -87.3747 83° East  Level FlightAware Approximate
Thu 10:46:40 PM 42.0247 -87.5025 74° East 272 313 11,200  Level Chicago Center
Thu 10:47:00 PM 42.0694 -87.2412 78° East  Level FlightAware Approximate
Thu 10:47:41 PM 42.0469 -87.3914 75° East 297 342 13,300  Level Chicago Center
Thu 10:48:00 PM 42.0926 -87.0943 77° East  Level FlightAware Approximate
Thu 10:48:42 PM 42.0717 -87.2678 75° East 336 387 14,000  Level Chicago Center
Thu 10:49:43 PM 42.0986 -87.1281 75° East 379 436 15,200 1,377 Climbing Chicago Center
Thu 10:50:44 PM 42.1150 -86.9861 81° East 385 443 16,800 1,463 Climbing Chicago Center
Thu 10:51:46 PM 42.1192 -86.8367 88° East 396 456 18,200 1,512 Climbing Chicago Center
Thu 10:52:47 PM 42.1258 -86.6781 87° East 399 459 19,900 1,623 Climbing Chicago Center
Thu 10:53:48 PM 42.1314 -86.5253 87° East 407 468 21,500 1,574 Climbing Chicago Center
Thu 10:54:49 PM 42.1367 -86.3744 87° East 405 466 23,100 1,512 Climbing Chicago Center
Thu 10:55:51 PM 42.1411 -86.2236 88° East 403 464 24,600 1,659 Climbing Chicago Center
Thu 10:56:52 PM 42.1433 -86.0392 89° East 409 471 26,500 1,623 Climbing Chicago Center
Thu 10:57:53 PM 42.1417 -85.8997 91° East 407 468 27,900 1,230 Climbing Chicago Center
Thu 10:58:54 PM 42.1408 -85.7481 90° East 407 468 29,000 541 Climbing Chicago Center
Thu 10:59:55 PM 42.1392 -85.5881 91° East 426 490 29,000  Level Chicago Center
Thu 11:00:57 PM 42.1375 -85.4136 91° East 463 533 29,000  Level Chicago Center
Thu 11:01:58 PM 42.1353 -85.2325 91° East 484 557 29,000  Level Chicago Center
Thu 11:02:59 PM 42.1325 -85.0078 91° East 498 573 29,000  Level Chicago Center
Thu 11:04:00 PM 42.1294 -84.8192 91° East 503 579 29,000  Level Chicago Center
Thu 11:05:02 PM 42.1253 -84.6325 92° East 503 579 29,000  Level Chicago Center
Thu 11:06:03 PM 42.1256 -84.4486 90° East 496 571 29,000  Level Chicago Center
Thu 11:06:43 PM 42.1383 -84.3358 81° East 492 566 29,000  Level Cleveland Center
Thu 11:07:43 PM 42.1525 -84.1572 84° East 480 552 29,000  Level Cleveland Center
Thu 11:08:43 PM 42.1681 -83.9817 83° East 475 547 29,000  Level Cleveland Center
Thu 11:09:43 PM 42.1836 -83.8031 83° East 475 547 29,000  Level Cleveland Center
Thu 11:10:43 PM 42.1989 -83.6244 83° East 480 552 29,000  Level Cleveland Center
Thu 11:11:43 PM 42.2186 -83.4261 82° East 480 552 29,000  Level Cleveland Center
Thu 11:12:43 PM 42.2292 -83.2472 85° East 480 552 29,000  Level Cleveland Center
Thu 11:13:43 PM 42.2456 -83.0794 82° East 485 558 29,000  Level Cleveland Center
Thu 11:14:43 PM 42.2597 -82.8978 84° East 485 558 29,000  Level Cleveland Center
Thu 11:15:43 PM 42.2736 -82.7186 84° East 485 558 29,000  Level Cleveland Center
Thu 11:16:43 PM 42.2872 -82.5394 84° East 475 547 29,000  Level Cleveland Center
Thu 11:17:43 PM 42.3006 -82.3603 84° East 475 547 29,000  Level Cleveland Center
Thu 11:18:43 PM 42.3136 -82.1808 84° East 480 552 29,000  Level Cleveland Center
Thu 11:19:43 PM 42.3286 -81.9986 84° East 480 552 29,000  Level Cleveland Center
Thu 11:20:43 PM 42.3408 -81.8219 85° East 480 552 29,000  Level Cleveland Center
Thu 11:21:43 PM 42.3531 -81.6453 85° East 475 547 29,000  Level Cleveland Center
Thu 11:22:43 PM 42.3631 -81.4683 86° East 475 547 29,000 -500 Level Cleveland Center
Thu 11:23:43 PM 42.3789 -81.2747 84° East 475 547 28,000 -950 Descending Cleveland Center
Thu 11:24:43 PM 42.3903 -81.0947 85° East 480 552 27,100 -500 Descending Cleveland Center
Thu 11:25:43 PM 42.4014 -80.9150 85° East 480 552 27,000 -50 Descending Cleveland Center
Thu 11:26:43 PM 42.4122 -80.7350 85° East 480 552 27,000  Level Cleveland Center
Thu 11:27:43 PM 42.4228 -80.5578 85° East 471 542 27,000 -600 Level Cleveland Center
Thu 11:28:43 PM 42.4331 -80.3806 85° East 466 536 25,800 -1,700 Descending Cleveland Center
Thu 11:29:43 PM 42.4431 -80.2089 85° East 461 531 23,600 -2,350 Descending Cleveland Center
Thu 11:30:43 PM 42.4506 -80.0514 86° East 437 503 21,100 -2,350 Descending Cleveland Center
Thu 11:31:43 PM 42.4583 -79.9078 86° East 426 490 18,900 -2,450 Descending Cleveland Center
Thu 11:32:43 PM 42.4719 -79.7583 83° East 415 478 16,200 -2,600 Descending Cleveland Center
Thu 11:33:43 PM 42.4792 -79.6119 86° East 398 458 13,700 -2,150 Descending Cleveland Center
Thu 11:34:43 PM 42.4861 -79.4767 86° East 378 435 11,900 -1,550 Descending Cleveland Center
Thu 11:35:43 PM 42.5164 -79.3719 69° East 311 358 10,600 -1,450 Descending Cleveland Center
Thu 11:36:43 PM 42.5717 -79.2836 50° Northeast 281 323 9,000 -1,650 Descending Cleveland Center
Thu 11:37:43 PM 42.6125 -79.2008 56° Northeast 264 304 7,300 -1,600 Descending Cleveland Center
Thu 11:38:43 PM 42.6533 -79.1267 53° Northeast 253 291 5,800 -1,200 Descending Cleveland Center
Thu 11:39:43 PM 42.6939 -79.0578 51° Northeast 247 284 4,900 -950 Descending Cleveland Center
Thu 11:40:43 PM 42.7431 -78.9917 45° Northeast 247 284 3,900 -750 Descending Cleveland Center
Thu 11:41:43 PM 42.7983 -78.9222 43° Northeast 242 278 3,400 -500 Descending Cleveland Center
Thu 11:42:43 PM 42.8475 -78.8531 46° Northeast 242 278 2,900 -500 Descending Cleveland Center

Login

Don't have an account? Register now (free) for customized features, flight alerts, and more!